sensor_id;sensor_type;location;lat;lon;timestamp;P1;durP1;ratioP1;P2;durP2;ratioP2
40449;SDS011;41787;53.570;10.032;2023-05-14T00:02:13;3.97;;;2.70;;
40449;SDS011;41787;53.570;10.032;2023-05-14T00:04:39;5.63;;;3.28;;
40449;SDS011;41787;53.570;10.032;2023-05-14T00:07:05;9.75;;;2.42;;
40449;SDS011;41787;53.570;10.032;2023-05-14T00:09:31;4.03;;;2.50;;
40449;SDS011;41787;53.570;10.032;2023-05-14T00:11:57;6.18;;;2.95;;
40449;SDS011;41787;53.570;10.032;2023-05-14T00:14:23;5.40;;;2.70;;
40449;SDS011;41787;53.570;10.032;2023-05-14T00:16:49;6.07;;;2.88;;
40449;SDS011;41787;53.570;10.032;2023-05-14T00:19:15;6.70;;;3.30;;
40449;SDS011;41787;53.570;10.032;2023-05-14T00:21:41;4.88;;;3.05;;
40449;SDS011;41787;53.570;10.032;2023-05-14T00:24:07;4.82;;;3.22;;
40449;SDS011;41787;53.570;10.032;2023-05-14T00:26:33;9.40;;;3.10;;
40449;SDS011;41787;53.570;10.032;2023-05-14T00:28:59;8.70;;;2.90;;
40449;SDS011;41787;53.570;10.032;2023-05-14T00:31:25;5.50;;;3.25;;
40449;SDS011;41787;53.570;10.032;2023-05-14T00:33:51;5.40;;;2.80;;
40449;SDS011;41787;53.570;10.032;2023-05-14T00:36:17;5.90;;;2.70;;
40449;SDS011;41787;53.570;10.032;2023-05-14T00:38:43;5.75;;;2.88;;
40449;SDS011;41787;53.570;10.032;2023-05-14T00:41:09;6.25;;;2.70;;
40449;SDS011;41787;53.570;10.032;2023-05-14T00:43:34;7.18;;;2.55;;
40449;SDS011;41787;53.570;10.032;2023-05-14T00:46:00;4.70;;;2.80;;
40449;SDS011;41787;53.570;10.032;2023-05-14T00:48:27;6.40;;;3.05;;
40449;SDS011;41787;53.570;10.032;2023-05-14T00:50:53;6.15;;;2.85;;
40449;SDS011;41787;53.570;10.032;2023-05-14T00:53:19;8.57;;;2.65;;
40449;SDS011;41787;53.570;10.032;2023-05-14T00:55:45;8.18;;;2.88;;
40449;SDS011;41787;53.570;10.032;2023-05-14T00:58:12;4.32;;;2.88;;
40449;SDS011;41787;53.570;10.032;2023-05-14T01:00:39;5.50;;;2.97;;
40449;SDS011;41787;53.570;10.032;2023-05-14T01:03:05;5.88;;;3.25;;
40449;SDS011;41787;53.570;10.032;2023-05-14T01:05:35;6.20;;;2.92;;
40449;SDS011;41787;53.570;10.032;2023-05-14T01:08:09;5.07;;;2.95;;
40449;SDS011;41787;53.570;10.032;2023-05-14T01:10:42;4.78;;;2.85;;
40449;SDS011;41787;53.570;10.032;2023-05-14T01:13:13;6.82;;;3.13;;
40449;SDS011;41787;53.570;10.032;2023-05-14T01:15:43;7.38;;;3.00;;
40449;SDS011;41787;53.570;10.032;2023-05-14T01:18:10;4.93;;;2.88;;
40449;SDS011;41787;53.570;10.032;2023-05-14T01:20:38;6.68;;;2.97;;
40449;SDS011;41787;53.570;10.032;2023-05-14T01:23:04;4.65;;;3.15;;
40449;SDS011;41787;53.570;10.032;2023-05-14T01:25:30;4.20;;;2.53;;
40449;SDS011;41787;53.570;10.032;2023-05-14T01:31:08;5.43;;;3.10;;
40449;SDS011;41787;53.570;10.032;2023-05-14T01:33:36;9.27;;;3.15;;
40449;SDS011;41787;53.570;10.032;2023-05-14T01:36:02;4.40;;;2.63;;
40449;SDS011;41787;53.570;10.032;2023-05-14T01:38:28;7.88;;;2.72;;
40449;SDS011;41787;53.570;10.032;2023-05-14T01:40:57;3.72;;;3.03;;
40449;SDS011;41787;53.570;10.032;2023-05-14T01:43:24;5.47;;;2.67;;
40449;SDS011;41787;53.570;10.032;2023-05-14T01:45:50;6.60;;;3.17;;
40449;SDS011;41787;53.570;10.032;2023-05-14T01:48:16;7.78;;;3.00;;
40449;SDS011;41787;53.570;10.032;2023-05-14T01:50:42;4.50;;;2.70;;
40449;SDS011;41787;53.570;10.032;2023-05-14T01:53:08;5.10;;;2.92;;
40449;SDS011;41787;53.570;10.032;2023-05-14T01:55:33;4.45;;;2.75;;
40449;SDS011;41787;53.570;10.032;2023-05-14T01:57:59;5.70;;;2.65;;
40449;SDS011;41787;53.570;10.032;2023-05-14T02:00:25;5.00;;;2.83;;
40449;SDS011;41787;53.570;10.032;2023-05-14T02:02:51;9.57;;;3.40;;
40449;SDS011;41787;53.570;10.032;2023-05-14T02:05:18;7.13;;;2.88;;
40449;SDS011;41787;53.570;10.032;2023-05-14T02:07:44;5.50;;;2.78;;
40449;SDS011;41787;53.570;10.032;2023-05-14T02:10:09;5.70;;;2.67;;
40449;SDS011;41787;53.570;10.032;2023-05-14T02:12:35;15.18;;;3.88;;
40449;SDS011;41787;53.570;10.032;2023-05-14T02:15:02;4.57;;;2.97;;
40449;SDS011;41787;53.570;10.032;2023-05-14T02:17:28;4.15;;;3.15;;
40449;SDS011;41787;53.570;10.032;2023-05-14T02:19:54;9.52;;;3.10;;
40449;SDS011;41787;53.570;10.032;2023-05-14T02:22:20;9.32;;;2.88;;
40449;SDS011;41787;53.570;10.032;2023-05-14T02:24:46;5.72;;;2.90;;
40449;SDS011;41787;53.570;10.032;2023-05-14T02:27:13;6.45;;;3.33;;
40449;SDS011;41787;53.570;10.032;2023-05-14T02:29:39;6.20;;;2.80;;
40449;SDS011;41787;53.570;10.032;2023-05-14T02:32:05;6.65;;;2.80;;
40449;SDS011;41787;53.570;10.032;2023-05-14T02:34:31;5.95;;;3.08;;
40449;SDS011;41787;53.570;10.032;2023-05-14T02:36:58;5.07;;;3.45;;
40449;SDS011;41787;53.570;10.032;2023-05-14T02:39:24;4.70;;;3.00;;
40449;SDS011;41787;53.570;10.032;2023-05-14T02:41:50;6.22;;;3.00;;
40449;SDS011;41787;53.570;10.032;2023-05-14T02:44:16;8.52;;;3.15;;
40449;SDS011;41787;53.570;10.032;2023-05-14T02:46:42;4.57;;;2.85;;
40449;SDS011;41787;53.570;10.032;2023-05-14T02:49:08;7.28;;;3.30;;
40449;SDS011;41787;53.570;10.032;2023-05-14T02:51:34;4.68;;;3.00;;
40449;SDS011;41787;53.570;10.032;2023-05-14T02:54:00;6.70;;;4.15;;
40449;SDS011;41787;53.570;10.032;2023-05-14T02:56:26;6.70;;;3.30;;
40449;SDS011;41787;53.570;10.032;2023-05-14T02:58:52;5.30;;;3.05;;
40449;SDS011;41787;53.570;10.032;2023-05-14T03:01:18;7.53;;;3.60;;
40449;SDS011;41787;53.570;10.032;2023-05-14T03:03:44;8.25;;;3.08;;
40449;SDS011;41787;53.570;10.032;2023-05-14T03:06:10;3.95;;;2.85;;
40449;SDS011;41787;53.570;10.032;2023-05-14T03:08:36;5.70;;;2.80;;
40449;SDS011;41787;53.570;10.032;2023-05-14T03:11:01;6.05;;;3.25;;
40449;SDS011;41787;53.570;10.032;2023-05-14T03:13:28;6.85;;;3.80;;
40449;SDS011;41787;53.570;10.032;2023-05-14T03:15:53;10.60;;;3.42;;
40449;SDS011;41787;53.570;10.032;2023-05-14T03:18:20;5.75;;;3.15;;
40449;SDS011;41787;53.570;10.032;2023-05-14T03:20:46;4.32;;;3.22;;
40449;SDS011;41787;53.570;10.032;2023-05-14T03:23:12;5.15;;;3.40;;
40449;SDS011;41787;53.570;10.032;2023-05-14T03:25:39;6.20;;;3.50;;
40449;SDS011;41787;53.570;10.032;2023-05-14T03:28:05;5.60;;;3.33;;
40449;SDS011;41787;53.570;10.032;2023-05-14T03:30:31;7.63;;;3.10;;
40449;SDS011;41787;53.570;10.032;2023-05-14T03:32:57;5.88;;;2.97;;
40449;SDS011;41787;53.570;10.032;2023-05-14T03:35:23;5.93;;;3.35;;
40449;SDS011;41787;53.570;10.032;2023-05-14T03:37:49;6.35;;;3.05;;
40449;SDS011;41787;53.570;10.032;2023-05-14T03:40:16;5.40;;;3.25;;
40449;SDS011;41787;53.570;10.032;2023-05-14T03:42:42;4.15;;;2.80;;
40449;SDS011;41787;53.570;10.032;2023-05-14T03:45:08;4.88;;;3.45;;
40449;SDS011;41787;53.570;10.032;2023-05-14T03:47:34;4.75;;;3.38;;
40449;SDS011;41787;53.570;10.032;2023-05-14T03:50:00;6.38;;;3.47;;
40449;SDS011;41787;53.570;10.032;2023-05-14T03:52:26;4.55;;;3.30;;
40449;SDS011;41787;53.570;10.032;2023-05-14T03:54:52;5.65;;;2.95;;
40449;SDS011;41787;53.570;10.032;2023-05-14T03:57:18;5.15;;;3.17;;
40449;SDS011;41787;53.570;10.032;2023-05-14T03:59:44;5.25;;;2.92;;
40449;SDS011;41787;53.570;10.032;2023-05-14T04:02:10;6.43;;;3.13;;
40449;SDS011;41787;53.570;10.032;2023-05-14T04:04:36;7.07;;;3.47;;
40449;SDS011;41787;53.570;10.032;2023-05-14T04:07:02;8.30;;;3.45;;
40449;SDS011;41787;53.570;10.032;2023-05-14T04:09:28;10.82;;;3.70;;
40449;SDS011;41787;53.570;10.032;2023-05-14T04:11:54;5.78;;;3.75;;
40449;SDS011;41787;53.570;10.032;2023-05-14T04:14:20;5.82;;;3.30;;
40449;SDS011;41787;53.570;10.032;2023-05-14T04:16:46;5.53;;;3.40;;
40449;SDS011;41787;53.570;10.032;2023-05-14T04:19:12;4.07;;;3.30;;
40449;SDS011;41787;53.570;10.032;2023-05-14T04:21:38;4.45;;;3.55;;
40449;SDS011;41787;53.570;10.032;2023-05-14T04:24:04;4.88;;;3.35;;
40449;SDS011;41787;53.570;10.032;2023-05-14T04:26:30;5.43;;;3.78;;
40449;SDS011;41787;53.570;10.032;2023-05-14T04:28:56;10.77;;;3.05;;
40449;SDS011;41787;53.570;10.032;2023-05-14T04:31:26;6.55;;;3.92;;
40449;SDS011;41787;53.570;10.032;2023-05-14T04:33:52;4.95;;;3.75;;
40449;SDS011;41787;53.570;10.032;2023-05-14T04:36:19;6.68;;;3.70;;
40449;SDS011;41787;53.570;10.032;2023-05-14T04:38:45;9.57;;;3.83;;
40449;SDS011;41787;53.570;10.032;2023-05-14T04:41:11;9.05;;;4.28;;
40449;SDS011;41787;53.570;10.032;2023-05-14T04:43:38;9.65;;;4.03;;
40449;SDS011;41787;53.570;10.032;2023-05-14T04:46:04;6.72;;;3.90;;
40449;SDS011;41787;53.570;10.032;2023-05-14T04:48:30;8.05;;;3.25;;
40449;SDS011;41787;53.570;10.032;2023-05-14T04:50:56;7.32;;;4.18;;
40449;SDS011;41787;53.570;10.032;2023-05-14T04:53:22;4.47;;;2.88;;
40449;SDS011;41787;53.570;10.032;2023-05-14T04:55:48;6.15;;;3.50;;
40449;SDS011;41787;53.570;10.032;2023-05-14T04:58:14;7.50;;;3.20;;
40449;SDS011;41787;53.570;10.032;2023-05-14T05:00:40;8.13;;;3.28;;
40449;SDS011;41787;53.570;10.032;2023-05-14T05:03:06;8.07;;;3.63;;
40449;SDS011;41787;53.570;10.032;2023-05-14T05:05:32;4.88;;;3.38;;
40449;SDS011;41787;53.570;10.032;2023-05-14T05:07:59;8.27;;;3.13;;
40449;SDS011;41787;53.570;10.032;2023-05-14T05:10:25;7.63;;;3.35;;
40449;SDS011;41787;53.570;10.032;2023-05-14T05:12:51;10.23;;;4.38;;
40449;SDS011;41787;53.570;10.032;2023-05-14T05:15:17;6.00;;;3.25;;
40449;SDS011;41787;53.570;10.032;2023-05-14T05:17:43;5.05;;;2.95;;
40449;SDS011;41787;53.570;10.032;2023-05-14T05:20:09;7.93;;;3.70;;
40449;SDS011;41787;53.570;10.032;2023-05-14T05:22:35;10.98;;;3.40;;
40449;SDS011;41787;53.570;10.032;2023-05-14T05:25:01;4.82;;;3.25;;
40449;SDS011;41787;53.570;10.032;2023-05-14T05:27:31;5.03;;;3.15;;
40449;SDS011;41787;53.570;10.032;2023-05-14T05:29:57;8.63;;;3.38;;
40449;SDS011;41787;53.570;10.032;2023-05-14T05:32:23;4.72;;;3.40;;
40449;SDS011;41787;53.570;10.032;2023-05-14T05:34:49;5.40;;;3.55;;
40449;SDS011;41787;53.570;10.032;2023-05-14T05:37:16;10.73;;;3.60;;
40449;SDS011;41787;53.570;10.032;2023-05-14T05:39:42;8.32;;;3.40;;
40449;SDS011;41787;53.570;10.032;2023-05-14T05:42:08;4.70;;;3.05;;
40449;SDS011;41787;53.570;10.032;2023-05-14T05:44:34;5.55;;;3.88;;
40449;SDS011;41787;53.570;10.032;2023-05-14T05:47:00;7.75;;;3.55;;
40449;SDS011;41787;53.570;10.032;2023-05-14T05:49:26;9.02;;;3.45;;
40449;SDS011;41787;53.570;10.032;2023-05-14T05:51:52;4.85;;;3.58;;
40449;SDS011;41787;53.570;10.032;2023-05-14T05:54:18;7.53;;;3.08;;
40449;SDS011;41787;53.570;10.032;2023-05-14T05:56:44;6.90;;;3.38;;
40449;SDS011;41787;53.570;10.032;2023-05-14T05:59:10;6.50;;;3.53;;
40449;SDS011;41787;53.570;10.032;2023-05-14T06:01:36;7.20;;;3.38;;
40449;SDS011;41787;53.570;10.032;2023-05-14T06:04:02;6.25;;;3.88;;
40449;SDS011;41787;53.570;10.032;2023-05-14T06:06:30;7.90;;;3.38;;
40449;SDS011;41787;53.570;10.032;2023-05-14T06:08:56;8.00;;;3.97;;
40449;SDS011;41787;53.570;10.032;2023-05-14T06:11:22;10.52;;;3.67;;
40449;SDS011;41787;53.570;10.032;2023-05-14T06:13:48;7.75;;;3.42;;
40449;SDS011;41787;53.570;10.032;2023-05-14T06:16:14;4.80;;;3.03;;
40449;SDS011;41787;53.570;10.032;2023-05-14T06:18:40;7.32;;;3.33;;
40449;SDS011;41787;53.570;10.032;2023-05-14T06:21:06;6.70;;;3.70;;
40449;SDS011;41787;53.570;10.032;2023-05-14T06:23:32;3.75;;;2.95;;
40449;SDS011;41787;53.570;10.032;2023-05-14T06:25:58;4.03;;;3.08;;
40449;SDS011;41787;53.570;10.032;2023-05-14T06:28:24;3.42;;;2.70;;
40449;SDS011;41787;53.570;10.032;2023-05-14T06:30:50;4.47;;;3.00;;
40449;SDS011;41787;53.570;10.032;2023-05-14T06:33:18;3.17;;;2.80;;
40449;SDS011;41787;53.570;10.032;2023-05-14T06:35:45;6.22;;;2.85;;
40449;SDS011;41787;53.570;10.032;2023-05-14T06:38:11;4.53;;;2.72;;
40449;SDS011;41787;53.570;10.032;2023-05-14T06:40:37;5.97;;;3.13;;
40449;SDS011;41787;53.570;10.032;2023-05-14T06:43:03;5.72;;;2.80;;
40449;SDS011;41787;53.570;10.032;2023-05-14T06:45:30;7.00;;;2.88;;
40449;SDS011;41787;53.570;10.032;2023-05-14T06:47:56;8.52;;;2.88;;
40449;SDS011;41787;53.570;10.032;2023-05-14T06:50:22;5.68;;;3.63;;
40449;SDS011;41787;53.570;10.032;2023-05-14T06:52:48;3.67;;;3.25;;
40449;SDS011;41787;53.570;10.032;2023-05-14T06:55:14;5.00;;;3.25;;
40449;SDS011;41787;53.570;10.032;2023-05-14T06:57:40;4.35;;;2.67;;
40449;SDS011;41787;53.570;10.032;2023-05-14T07:00:06;3.80;;;2.50;;
40449;SDS011;41787;53.570;10.032;2023-05-14T07:02:32;7.35;;;2.30;;
40449;SDS011;41787;53.570;10.032;2023-05-14T07:04:58;5.07;;;2.90;;
40449;SDS011;41787;53.570;10.032;2023-05-14T07:07:24;4.03;;;2.72;;
40449;SDS011;41787;53.570;10.032;2023-05-14T07:09:50;3.15;;;2.42;;
40449;SDS011;41787;53.570;10.032;2023-05-14T07:12:16;8.68;;;2.15;;
40449;SDS011;41787;53.570;10.032;2023-05-14T07:14:42;3.78;;;2.70;;
40449;SDS011;41787;53.570;10.032;2023-05-14T07:17:08;5.18;;;2.80;;
40449;SDS011;41787;53.570;10.032;2023-05-14T07:19:35;9.63;;;2.85;;
40449;SDS011;41787;53.570;10.032;2023-05-14T07:22:00;3.70;;;2.40;;
40449;SDS011;41787;53.570;10.032;2023-05-14T07:24:26;6.35;;;2.95;;
40449;SDS011;41787;53.570;10.032;2023-05-14T07:26:52;4.95;;;2.97;;
40449;SDS011;41787;53.570;10.032;2023-05-14T07:29:21;4.78;;;2.60;;
40449;SDS011;41787;53.570;10.032;2023-05-14T07:31:47;6.03;;;2.53;;
40449;SDS011;41787;53.570;10.032;2023-05-14T07:34:12;5.72;;;2.45;;
40449;SDS011;41787;53.570;10.032;2023-05-14T07:36:39;5.35;;;2.47;;
40449;SDS011;41787;53.570;10.032;2023-05-14T07:39:05;2.50;;;2.08;;
40449;SDS011;41787;53.570;10.032;2023-05-14T07:41:31;4.97;;;2.47;;
40449;SDS011;41787;53.570;10.032;2023-05-14T07:43:57;3.15;;;1.90;;
40449;SDS011;41787;53.570;10.032;2023-05-14T07:46:22;5.63;;;2.67;;
40449;SDS011;41787;53.570;10.032;2023-05-14T07:48:49;8.45;;;2.33;;
40449;SDS011;41787;53.570;10.032;2023-05-14T07:51:15;2.78;;;2.42;;
40449;SDS011;41787;53.570;10.032;2023-05-14T07:53:41;2.97;;;2.10;;
40449;SDS011;41787;53.570;10.032;2023-05-14T07:56:07;5.38;;;2.53;;
40449;SDS011;41787;53.570;10.032;2023-05-14T07:58:33;3.50;;;2.25;;
40449;SDS011;41787;53.570;10.032;2023-05-14T08:00:59;4.47;;;2.10;;
40449;SDS011;41787;53.570;10.032;2023-05-14T08:03:28;2.17;;;1.85;;
40449;SDS011;41787;53.570;10.032;2023-05-14T08:05:53;3.13;;;2.30;;
40449;SDS011;41787;53.570;10.032;2023-05-14T08:08:20;2.70;;;1.88;;
40449;SDS011;41787;53.570;10.032;2023-05-14T08:10:47;4.22;;;2.13;;
40449;SDS011;41787;53.570;10.032;2023-05-14T08:13:12;3.30;;;1.80;;
40449;SDS011;41787;53.570;10.032;2023-05-14T08:15:38;3.28;;;1.88;;
40449;SDS011;41787;53.570;10.032;2023-05-14T08:18:04;2.92;;;2.20;;
40449;SDS011;41787;53.570;10.032;2023-05-14T08:20:30;2.28;;;1.85;;
40449;SDS011;41787;53.570;10.032;2023-05-14T08:22:56;10.82;;;2.20;;
40449;SDS011;41787;53.570;10.032;2023-05-14T08:25:23;2.45;;;2.00;;
40449;SDS011;41787;53.570;10.032;2023-05-14T08:27:49;6.13;;;2.20;;
40449;SDS011;41787;53.570;10.032;2023-05-14T08:30:15;4.63;;;1.95;;
40449;SDS011;41787;53.570;10.032;2023-05-14T08:32:41;6.75;;;2.08;;
40449;SDS011;41787;53.570;10.032;2023-05-14T08:35:08;3.72;;;2.05;;
40449;SDS011;41787;53.570;10.032;2023-05-14T08:37:34;4.70;;;1.90;;
40449;SDS011;41787;53.570;10.032;2023-05-14T08:40:00;4.82;;;2.00;;
40449;SDS011;41787;53.570;10.032;2023-05-14T08:42:26;5.00;;;2.25;;
40449;SDS011;41787;53.570;10.032;2023-05-14T08:44:57;4.05;;;1.80;;
40449;SDS011;41787;53.570;10.032;2023-05-14T08:47:25;4.40;;;1.92;;
40449;SDS011;41787;53.570;10.032;2023-05-14T08:49:54;4.72;;;1.80;;
40449;SDS011;41787;53.570;10.032;2023-05-14T08:52:23;2.38;;;1.90;;
40449;SDS011;41787;53.570;10.032;2023-05-14T08:54:49;3.13;;;1.75;;
40449;SDS011;41787;53.570;10.032;2023-05-14T08:57:15;2.33;;;1.50;;
40449;SDS011;41787;53.570;10.032;2023-05-14T08:59:43;4.90;;;1.40;;
40449;SDS011;41787;53.570;10.032;2023-05-14T09:02:09;9.90;;;1.90;;
40449;SDS011;41787;53.570;10.032;2023-05-14T09:04:36;4.72;;;1.70;;
40449;SDS011;41787;53.570;10.032;2023-05-14T09:07:02;3.63;;;1.65;;
40449;SDS011;41787;53.570;10.032;2023-05-14T09:09:28;3.60;;;1.85;;
40449;SDS011;41787;53.570;10.032;2023-05-14T09:11:54;5.35;;;1.67;;
40449;SDS011;41787;53.570;10.032;2023-05-14T09:14:20;3.50;;;1.85;;
40449;SDS011;41787;53.570;10.032;2023-05-14T09:16:47;2.75;;;1.75;;
40449;SDS011;41787;53.570;10.032;2023-05-14T09:19:14;3.45;;;1.60;;
40449;SDS011;41787;53.570;10.032;2023-05-14T09:21:43;2.65;;;2.00;;
40449;SDS011;41787;53.570;10.032;2023-05-14T09:24:09;3.75;;;1.52;;
40449;SDS011;41787;53.570;10.032;2023-05-14T09:26:43;5.43;;;2.08;;
40449;SDS011;41787;53.570;10.032;2023-05-14T09:29:08;4.60;;;1.63;;
40449;SDS011;41787;53.570;10.032;2023-05-14T09:31:34;6.15;;;1.30;;
40449;SDS011;41787;53.570;10.032;2023-05-14T09:34:01;3.88;;;1.85;;
40449;SDS011;41787;53.570;10.032;2023-05-14T09:36:28;6.50;;;1.98;;
40449;SDS011;41787;53.570;10.032;2023-05-14T09:38:57;5.85;;;1.67;;
40449;SDS011;41787;53.570;10.032;2023-05-14T09:41:23;6.13;;;1.40;;
40449;SDS011;41787;53.570;10.032;2023-05-14T09:43:50;3.70;;;1.73;;
40449;SDS011;41787;53.570;10.032;2023-05-14T09:46:16;15.60;;;3.05;;
40449;SDS011;41787;53.570;10.032;2023-05-14T09:48:42;4.82;;;1.45;;
40449;SDS011;41787;53.570;10.032;2023-05-14T09:51:08;3.90;;;1.63;;
40449;SDS011;41787;53.570;10.032;2023-05-14T09:53:35;3.65;;;1.50;;
40449;SDS011;41787;53.570;10.032;2023-05-14T09:56:02;3.63;;;1.60;;
40449;SDS011;41787;53.570;10.032;2023-05-14T09:58:28;4.10;;;1.70;;
40449;SDS011;41787;53.570;10.032;2023-05-14T10:00:53;4.47;;;1.50;;
40449;SDS011;41787;53.570;10.032;2023-05-14T10:03:21;5.85;;;1.83;;
40449;SDS011;41787;53.570;10.032;2023-05-14T10:05:49;2.33;;;1.48;;
40449;SDS011;41787;53.570;10.032;2023-05-14T10:08:20;5.50;;;1.67;;
40449;SDS011;41787;53.570;10.032;2023-05-14T10:10:47;8.73;;;1.65;;
40449;SDS011;41787;53.570;10.032;2023-05-14T10:13:13;5.72;;;1.67;;
40449;SDS011;41787;53.570;10.032;2023-05-14T10:15:47;1.42;;;1.02;;
40449;SDS011;41787;53.570;10.032;2023-05-14T10:18:15;5.32;;;1.60;;
40449;SDS011;41787;53.570;10.032;2023-05-14T10:20:42;7.45;;;1.80;;
40449;SDS011;41787;53.570;10.032;2023-05-14T10:23:08;8.02;;;1.77;;
40449;SDS011;41787;53.570;10.032;2023-05-14T10:25:34;2.33;;;1.63;;
40449;SDS011;41787;53.570;10.032;2023-05-14T10:28:01;5.53;;;1.58;;
40449;SDS011;41787;53.570;10.032;2023-05-14T10:30:27;4.90;;;1.80;;
40449;SDS011;41787;53.570;10.032;2023-05-14T10:33:06;3.20;;;1.63;;
40449;SDS011;41787;53.570;10.032;2023-05-14T10:35:32;2.35;;;1.48;;
40449;SDS011;41787;53.570;10.032;2023-05-14T10:38:15;1.98;;;1.30;;
40449;SDS011;41787;53.570;10.032;2023-05-14T10:40:41;3.70;;;1.90;;
40449;SDS011;41787;53.570;10.032;2023-05-14T10:43:07;2.78;;;1.60;;
40449;SDS011;41787;53.570;10.032;2023-05-14T10:45:35;2.67;;;1.35;;
40449;SDS011;41787;53.570;10.032;2023-05-14T10:48:01;4.53;;;1.63;;
40449;SDS011;41787;53.570;10.032;2023-05-14T10:50:27;3.15;;;1.92;;
40449;SDS011;41787;53.570;10.032;2023-05-14T10:52:54;3.13;;;1.70;;
40449;SDS011;41787;53.570;10.032;2023-05-14T10:55:21;6.07;;;1.48;;
40449;SDS011;41787;53.570;10.032;2023-05-14T10:57:47;3.17;;;1.65;;
40449;SDS011;41787;53.570;10.032;2023-05-14T11:00:13;3.00;;;1.42;;
40449;SDS011;41787;53.570;10.032;2023-05-14T11:02:40;3.47;;;1.45;;
40449;SDS011;41787;53.570;10.032;2023-05-14T11:05:07;3.50;;;1.98;;
40449;SDS011;41787;53.570;10.032;2023-05-14T11:07:38;2.83;;;1.83;;
40449;SDS011;41787;53.570;10.032;2023-05-14T11:12:30;3.67;;;1.42;;
40449;SDS011;41787;53.570;10.032;2023-05-14T11:14:57;6.47;;;1.90;;
40449;SDS011;41787;53.570;10.032;2023-05-14T11:17:24;3.22;;;1.75;;
40449;SDS011;41787;53.570;10.032;2023-05-14T11:19:50;7.07;;;3.15;;
40449;SDS011;41787;53.570;10.032;2023-05-14T11:22:16;3.83;;;1.80;;
40449;SDS011;41787;53.570;10.032;2023-05-14T11:24:42;3.38;;;2.00;;
40449;SDS011;41787;53.570;10.032;2023-05-14T11:27:09;5.03;;;1.75;;
40449;SDS011;41787;53.570;10.032;2023-05-14T11:29:35;5.53;;;2.50;;
40449;SDS011;41787;53.570;10.032;2023-05-14T11:32:03;3.60;;;2.03;;
40449;SDS011;41787;53.570;10.032;2023-05-14T11:34:29;3.05;;;1.73;;
40449;SDS011;41787;53.570;10.032;2023-05-14T11:36:55;4.63;;;1.98;;
40449;SDS011;41787;53.570;10.032;2023-05-14T11:39:21;4.90;;;1.63;;
40449;SDS011;41787;53.570;10.032;2023-05-14T11:41:47;4.90;;;1.65;;
40449;SDS011;41787;53.570;10.032;2023-05-14T11:44:13;4.82;;;1.60;;
40449;SDS011;41787;53.570;10.032;2023-05-14T11:46:39;4.85;;;1.70;;
40449;SDS011;41787;53.570;10.032;2023-05-14T11:49:05;9.30;;;1.90;;
40449;SDS011;41787;53.570;10.032;2023-05-14T11:51:31;4.90;;;1.70;;
40449;SDS011;41787;53.570;10.032;2023-05-14T11:53:57;2.13;;;1.42;;
40449;SDS011;41787;53.570;10.032;2023-05-14T11:56:23;4.32;;;1.52;;
40449;SDS011;41787;53.570;10.032;2023-05-14T11:58:54;7.85;;;2.00;;
40449;SDS011;41787;53.570;10.032;2023-05-14T12:01:20;3.22;;;1.70;;
40449;SDS011;41787;53.570;10.032;2023-05-14T12:03:46;3.83;;;2.08;;
40449;SDS011;41787;53.570;10.032;2023-05-14T12:06:12;5.45;;;1.50;;
40449;SDS011;41787;53.570;10.032;2023-05-14T12:08:38;4.68;;;1.60;;
40449;SDS011;41787;53.570;10.032;2023-05-14T12:11:04;5.53;;;2.13;;
40449;SDS011;41787;53.570;10.032;2023-05-14T12:13:30;2.08;;;1.33;;
40449;SDS011;41787;53.570;10.032;2023-05-14T12:15:56;6.18;;;1.70;;
40449;SDS011;41787;53.570;10.032;2023-05-14T12:18:23;4.22;;;1.60;;
40449;SDS011;41787;53.570;10.032;2023-05-14T12:20:49;2.00;;;1.60;;
40449;SDS011;41787;53.570;10.032;2023-05-14T12:23:16;2.78;;;1.88;;
40449;SDS011;41787;53.570;10.032;2023-05-14T12:25:48;6.93;;;2.08;;
40449;SDS011;41787;53.570;10.032;2023-05-14T12:28:15;2.00;;;1.73;;
40449;SDS011;41787;53.570;10.032;2023-05-14T12:30:41;3.63;;;1.92;;
40449;SDS011;41787;53.570;10.032;2023-05-14T12:33:07;2.15;;;1.50;;
40449;SDS011;41787;53.570;10.032;2023-05-14T12:35:33;4.35;;;2.33;;
40449;SDS011;41787;53.570;10.032;2023-05-14T12:38:02;10.90;;;1.97;;
40449;SDS011;41787;53.570;10.032;2023-05-14T12:40:29;3.67;;;1.40;;
40449;SDS011;41787;53.570;10.032;2023-05-14T12:42:55;3.38;;;1.83;;
40449;SDS011;41787;53.570;10.032;2023-05-14T12:45:21;3.10;;;1.77;;
40449;SDS011;41787;53.570;10.032;2023-05-14T12:47:47;2.08;;;1.58;;
40449;SDS011;41787;53.570;10.032;2023-05-14T12:50:13;3.78;;;1.92;;
40449;SDS011;41787;53.570;10.032;2023-05-14T12:52:39;2.40;;;1.60;;
40449;SDS011;41787;53.570;10.032;2023-05-14T12:55:05;3.42;;;1.70;;
40449;SDS011;41787;53.570;10.032;2023-05-14T12:57:31;2.90;;;2.05;;
40449;SDS011;41787;53.570;10.032;2023-05-14T12:59:59;3.42;;;1.90;;
40449;SDS011;41787;53.570;10.032;2023-05-14T13:02:24;5.80;;;2.08;;
40449;SDS011;41787;53.570;10.032;2023-05-14T13:04:50;5.95;;;1.70;;
40449;SDS011;41787;53.570;10.032;2023-05-14T13:07:16;7.65;;;1.95;;
40449;SDS011;41787;53.570;10.032;2023-05-14T13:09:42;1.77;;;1.42;;
40449;SDS011;41787;53.570;10.032;2023-05-14T13:12:08;3.33;;;2.25;;
40449;SDS011;41787;53.570;10.032;2023-05-14T13:14:34;2.47;;;1.60;;
40449;SDS011;41787;53.570;10.032;2023-05-14T13:17:00;5.45;;;2.05;;
40449;SDS011;41787;53.570;10.032;2023-05-14T13:19:26;2.40;;;1.90;;
40449;SDS011;41787;53.570;10.032;2023-05-14T13:21:52;5.47;;;1.80;;
40449;SDS011;41787;53.570;10.032;2023-05-14T13:24:18;4.75;;;1.45;;
40449;SDS011;41787;53.570;10.032;2023-05-14T13:26:44;5.07;;;1.65;;
40449;SDS011;41787;53.570;10.032;2023-05-14T13:29:10;2.70;;;1.45;;
40449;SDS011;41787;53.570;10.032;2023-05-14T13:31:36;5.22;;;1.98;;
40449;SDS011;41787;53.570;10.032;2023-05-14T13:34:02;4.60;;;1.65;;
40449;SDS011;41787;53.570;10.032;2023-05-14T13:36:28;4.68;;;1.70;;
40449;SDS011;41787;53.570;10.032;2023-05-14T13:38:56;3.10;;;1.67;;
40449;SDS011;41787;53.570;10.032;2023-05-14T13:41:22;3.08;;;1.88;;
40449;SDS011;41787;53.570;10.032;2023-05-14T13:43:48;2.45;;;1.50;;
40449;SDS011;41787;53.570;10.032;2023-05-14T13:46:13;5.85;;;1.52;;
40449;SDS011;41787;53.570;10.032;2023-05-14T13:48:39;2.95;;;1.02;;
40449;SDS011;41787;53.570;10.032;2023-05-14T13:51:05;2.85;;;1.27;;
40449;SDS011;41787;53.570;10.032;2023-05-14T13:53:31;3.70;;;1.80;;
40449;SDS011;41787;53.570;10.032;2023-05-14T13:55:57;8.63;;;1.73;;
40449;SDS011;41787;53.570;10.032;2023-05-14T13:58:25;2.03;;;1.30;;
40449;SDS011;41787;53.570;10.032;2023-05-14T14:00:51;6.05;;;1.60;;
40449;SDS011;41787;53.570;10.032;2023-05-14T14:03:17;4.35;;;2.08;;
40449;SDS011;41787;53.570;10.032;2023-05-14T14:05:43;2.72;;;1.50;;
40449;SDS011;41787;53.570;10.032;2023-05-14T14:08:09;6.88;;;1.80;;
40449;SDS011;41787;53.570;10.032;2023-05-14T14:10:35;2.92;;;1.88;;
40449;SDS011;41787;53.570;10.032;2023-05-14T14:13:03;5.18;;;1.83;;
40449;SDS011;41787;53.570;10.032;2023-05-14T14:15:29;2.95;;;1.60;;
40449;SDS011;41787;53.570;10.032;2023-05-14T14:17:55;2.90;;;1.80;;
40449;SDS011;41787;53.570;10.032;2023-05-14T14:20:21;2.95;;;1.65;;
40449;SDS011;41787;53.570;10.032;2023-05-14T14:22:47;3.83;;;1.55;;
40449;SDS011;41787;53.570;10.032;2023-05-14T14:25:12;3.17;;;1.58;;
40449;SDS011;41787;53.570;10.032;2023-05-14T14:27:39;3.25;;;1.75;;
40449;SDS011;41787;53.570;10.032;2023-05-14T14:30:06;5.00;;;1.73;;
40449;SDS011;41787;53.570;10.032;2023-05-14T14:32:33;4.97;;;2.05;;
40449;SDS011;41787;53.570;10.032;2023-05-14T14:34:59;6.88;;;2.05;;